sensor_id;sensor_type;location;lat;lon;timestamp;temperature;humidity
36280;DHT22;22317;47.936;12.742;2023-07-20T00:00:52;17.30;60.00
36280;DHT22;22317;47.936;12.742;2023-07-20T00:03:19;17.40;60.10
36280;DHT22;22317;47.936;12.742;2023-07-20T00:05:51;17.50;60.00
36280;DHT22;22317;47.936;12.742;2023-07-20T00:08:17;17.50;59.90
36280;DHT22;22317;47.936;12.742;2023-07-20T00:10:43;17.50;59.90
36280;DHT22;22317;47.936;12.742;2023-07-20T00:13:13;17.60;60.00
36280;DHT22;22317;47.936;12.742;2023-07-20T00:15:41;17.60;59.80
36280;DHT22;22317;47.936;12.742;2023-07-20T00:18:07;17.60;59.60
36280;DHT22;22317;47.936;12.742;2023-07-20T00:20:33;17.60;59.40
36280;DHT22;22317;47.936;12.742;2023-07-20T00:22:58;17.50;59.00
36280;DHT22;22317;47.936;12.742;2023-07-20T00:25:24;17.40;58.90
36280;DHT22;22317;47.936;12.742;2023-07-20T00:27:50;17.30;59.00
36280;DHT22;22317;47.936;12.742;2023-07-20T00:30:16;17.20;59.00
36280;DHT22;22317;47.936;12.742;2023-07-20T00:32:43;17.10;59.00
36280;DHT22;22317;47.936;12.742;2023-07-20T00:35:09;17.00;59.20
36280;DHT22;22317;47.936;12.742;2023-07-20T00:37:36;16.90;60.10
36280;DHT22;22317;47.936;12.742;2023-07-20T00:40:02;16.80;59.70
36280;DHT22;22317;47.936;12.742;2023-07-20T00:42:30;16.80;59.80
36280;DHT22;22317;47.936;12.742;2023-07-20T00:44:56;16.80;60.00
36280;DHT22;22317;47.936;12.742;2023-07-20T00:47:21;16.70;60.10
36280;DHT22;22317;47.936;12.742;2023-07-20T00:49:48;16.70;60.50
36280;DHT22;22317;47.936;12.742;2023-07-20T00:52:14;16.70;60.60
36280;DHT22;22317;47.936;12.742;2023-07-20T00:54:42;16.70;60.60
36280;DHT22;22317;47.936;12.742;2023-07-20T00:57:09;16.70;60.50
36280;DHT22;22317;47.936;12.742;2023-07-20T00:59:35;16.70;60.50
36280;DHT22;22317;47.936;12.742;2023-07-20T01:02:02;16.60;60.70
36280;DHT22;22317;47.936;12.742;2023-07-20T01:04:28;16.60;60.80
36280;DHT22;22317;47.936;12.742;2023-07-20T01:09:31;16.50;61.10
36280;DHT22;22317;47.936;12.742;2023-07-20T01:12:10;16.60;61.40
36280;DHT22;22317;47.936;12.742;2023-07-20T01:14:38;16.60;61.50
36280;DHT22;22317;47.936;12.742;2023-07-20T01:17:04;16.60;61.30
36280;DHT22;22317;47.936;12.742;2023-07-20T01:19:30;16.60;61.30
36280;DHT22;22317;47.936;12.742;2023-07-20T01:22:04;16.60;61.20
36280;DHT22;22317;47.936;12.742;2023-07-20T01:28:10;16.60;60.80
36280;DHT22;22317;47.936;12.742;2023-07-20T01:33:03;16.50;61.00
36280;DHT22;22317;47.936;12.742;2023-07-20T01:35:31;16.40;60.90
36280;DHT22;22317;47.936;12.742;2023-07-20T01:37:59;16.30;61.10
36280;DHT22;22317;47.936;12.742;2023-07-20T01:40:25;16.20;61.20
36280;DHT22;22317;47.936;12.742;2023-07-20T01:42:52;16.20;61.30
36280;DHT22;22317;47.936;12.742;2023-07-20T01:45:19;16.20;61.20
36280;DHT22;22317;47.936;12.742;2023-07-20T01:47:45;16.20;61.20
36280;DHT22;22317;47.936;12.742;2023-07-20T01:50:11;16.10;61.10
36280;DHT22;22317;47.936;12.742;2023-07-20T01:52:37;16.00;61.00
36280;DHT22;22317;47.936;12.742;2023-07-20T01:55:03;16.00;61.00
36280;DHT22;22317;47.936;12.742;2023-07-20T01:57:31;16.00;61.40
36280;DHT22;22317;47.936;12.742;2023-07-20T01:59:57;15.90;60.90
36280;DHT22;22317;47.936;12.742;2023-07-20T02:02:26;15.90;61.00
36280;DHT22;22317;47.936;12.742;2023-07-20T02:04:51;15.90;61.20
36280;DHT22;22317;47.936;12.742;2023-07-20T02:07:17;15.80;61.40
36280;DHT22;22317;47.936;12.742;2023-07-20T02:09:43;15.80;61.50
36280;DHT22;22317;47.936;12.742;2023-07-20T02:12:09;15.70;61.50
36280;DHT22;22317;47.936;12.742;2023-07-20T02:14:34;15.70;61.60
36280;DHT22;22317;47.936;12.742;2023-07-20T02:17:00;15.70;61.70
36280;DHT22;22317;47.936;12.742;2023-07-20T02:19:29;15.60;61.80
36280;DHT22;22317;47.936;12.742;2023-07-20T02:21:55;15.60;62.00
36280;DHT22;22317;47.936;12.742;2023-07-20T02:24:21;15.60;62.20
36280;DHT22;22317;47.936;12.742;2023-07-20T02:26:47;15.60;62.20
36280;DHT22;22317;47.936;12.742;2023-07-20T02:29:12;15.60;62.30
36280;DHT22;22317;47.936;12.742;2023-07-20T02:31:38;15.60;62.30
36280;DHT22;22317;47.936;12.742;2023-07-20T02:34:05;15.60;62.30
36280;DHT22;22317;47.936;12.742;2023-07-20T02:36:32;15.70;62.50
36280;DHT22;22317;47.936;12.742;2023-07-20T02:39:00;15.70;62.50
36280;DHT22;22317;47.936;12.742;2023-07-20T02:41:27;15.70;62.40
36280;DHT22;22317;47.936;12.742;2023-07-20T02:43:53;15.80;62.30
36280;DHT22;22317;47.936;12.742;2023-07-20T02:46:19;15.80;62.30
36280;DHT22;22317;47.936;12.742;2023-07-20T02:48:45;15.80;62.30
36280;DHT22;22317;47.936;12.742;2023-07-20T02:51:11;15.90;62.20
36280;DHT22;22317;47.936;12.742;2023-07-20T02:53:37;15.90;62.30
36280;DHT22;22317;47.936;12.742;2023-07-20T02:56:04;16.00;62.10
36280;DHT22;22317;47.936;12.742;2023-07-20T02:58:29;16.00;61.90
36280;DHT22;22317;47.936;12.742;2023-07-20T03:00:55;16.00;61.70
36280;DHT22;22317;47.936;12.742;2023-07-20T03:03:21;16.00;61.60
36280;DHT22;22317;47.936;12.742;2023-07-20T03:05:46;15.90;61.50
36280;DHT22;22317;47.936;12.742;2023-07-20T03:08:12;16.00;61.60
36280;DHT22;22317;47.936;12.742;2023-07-20T03:10:39;16.00;61.70
36280;DHT22;22317;47.936;12.742;2023-07-20T03:13:06;15.90;61.60
36280;DHT22;22317;47.936;12.742;2023-07-20T03:15:32;16.00;61.70
36280;DHT22;22317;47.936;12.742;2023-07-20T03:17:58;16.00;61.70
36280;DHT22;22317;47.936;12.742;2023-07-20T03:20:24;16.00;61.60
36280;DHT22;22317;47.936;12.742;2023-07-20T03:22:50;16.00;61.50
36280;DHT22;22317;47.936;12.742;2023-07-20T03:25:16;16.00;61.60
36280;DHT22;22317;47.936;12.742;2023-07-20T03:27:43;16.00;62.20
36280;DHT22;22317;47.936;12.742;2023-07-20T03:30:09;15.90;61.30
36280;DHT22;22317;47.936;12.742;2023-07-20T03:32:35;15.80;61.40
36280;DHT22;22317;47.936;12.742;2023-07-20T03:35:02;15.80;61.60
36280;DHT22;22317;47.936;12.742;2023-07-20T03:37:27;15.80;61.70
36280;DHT22;22317;47.936;12.742;2023-07-20T03:39:53;15.70;61.60
36280;DHT22;22317;47.936;12.742;2023-07-20T03:42:19;15.70;61.70
36280;DHT22;22317;47.936;12.742;2023-07-20T03:44:45;15.70;61.80
36280;DHT22;22317;47.936;12.742;2023-07-20T03:47:13;15.70;61.80
36280;DHT22;22317;47.936;12.742;2023-07-20T03:49:39;15.70;61.70
36280;DHT22;22317;47.936;12.742;2023-07-20T03:52:05;15.70;61.70
36280;DHT22;22317;47.936;12.742;2023-07-20T03:54:31;15.70;62.60
36280;DHT22;22317;47.936;12.742;2023-07-20T03:56:57;15.70;61.60
36280;DHT22;22317;47.936;12.742;2023-07-20T03:59:23;15.70;61.70
36280;DHT22;22317;47.936;12.742;2023-07-20T04:01:49;15.70;61.70
36280;DHT22;22317;47.936;12.742;2023-07-20T04:04:16;15.70;61.70
36280;DHT22;22317;47.936;12.742;2023-07-20T04:06:41;15.70;61.70
36280;DHT22;22317;47.936;12.742;2023-07-20T04:09:10;15.70;61.70
36280;DHT22;22317;47.936;12.742;2023-07-20T04:11:36;15.70;61.70
36280;DHT22;22317;47.936;12.742;2023-07-20T04:14:02;15.70;61.80
36280;DHT22;22317;47.936;12.742;2023-07-20T04:16:27;15.80;61.80
36280;DHT22;22317;47.936;12.742;2023-07-20T04:18:56;15.80;61.70
36280;DHT22;22317;47.936;12.742;2023-07-20T04:21:22;15.80;61.70
36280;DHT22;22317;47.936;12.742;2023-07-20T04:23:49;15.80;61.70
36280;DHT22;22317;47.936;12.742;2023-07-20T04:26:15;15.80;61.90
36280;DHT22;22317;47.936;12.742;2023-07-20T04:28:41;15.80;61.90
36280;DHT22;22317;47.936;12.742;2023-07-20T04:31:15;15.70;61.80
36280;DHT22;22317;47.936;12.742;2023-07-20T04:33:42;15.70;62.10
36280;DHT22;22317;47.936;12.742;2023-07-20T04:36:08;15.60;62.20
36280;DHT22;22317;47.936;12.742;2023-07-20T04:38:35;15.60;62.30
36280;DHT22;22317;47.936;12.742;2023-07-20T04:41:08;15.60;62.60
36280;DHT22;22317;47.936;12.742;2023-07-20T04:43:42;15.60;62.60
36280;DHT22;22317;47.936;12.742;2023-07-20T04:46:13;15.60;62.80
36280;DHT22;22317;47.936;12.742;2023-07-20T04:48:39;15.60;62.80
36280;DHT22;22317;47.936;12.742;2023-07-20T04:51:06;15.50;62.80
36280;DHT22;22317;47.936;12.742;2023-07-20T04:53:32;15.50;62.90
36280;DHT22;22317;47.936;12.742;2023-07-20T04:55:58;15.50;62.90
36280;DHT22;22317;47.936;12.742;2023-07-20T04:58:25;15.50;63.10
36280;DHT22;22317;47.936;12.742;2023-07-20T05:00:52;15.50;63.20
36280;DHT22;22317;47.936;12.742;2023-07-20T05:03:18;15.50;63.20
36280;DHT22;22317;47.936;12.742;2023-07-20T05:05:46;15.40;63.00
36280;DHT22;22317;47.936;12.742;2023-07-20T05:08:12;15.40;63.00
36280;DHT22;22317;47.936;12.742;2023-07-20T05:10:38;15.40;63.00
36280;DHT22;22317;47.936;12.742;2023-07-20T05:13:04;15.30;63.10
36280;DHT22;22317;47.936;12.742;2023-07-20T05:15:29;15.30;63.30
36280;DHT22;22317;47.936;12.742;2023-07-20T05:17:57;15.30;63.40
36280;DHT22;22317;47.936;12.742;2023-07-20T05:20:23;15.30;63.40
36280;DHT22;22317;47.936;12.742;2023-07-20T05:22:49;15.40;64.20
36280;DHT22;22317;47.936;12.742;2023-07-20T05:25:15;15.40;63.30
36280;DHT22;22317;47.936;12.742;2023-07-20T05:27:45;15.40;63.30
36280;DHT22;22317;47.936;12.742;2023-07-20T05:30:12;15.40;63.40
36280;DHT22;22317;47.936;12.742;2023-07-20T05:32:37;15.50;63.40
36280;DHT22;22317;47.936;12.742;2023-07-20T05:35:03;15.50;63.30
36280;DHT22;22317;47.936;12.742;2023-07-20T05:37:29;15.60;64.10
36280;DHT22;22317;47.936;12.742;2023-07-20T05:39:55;15.60;63.40
36280;DHT22;22317;47.936;12.742;2023-07-20T05:42:21;15.70;63.30
36280;DHT22;22317;47.936;12.742;2023-07-20T05:44:47;15.70;63.10
36280;DHT22;22317;47.936;12.742;2023-07-20T05:47:13;15.70;63.20
36280;DHT22;22317;47.936;12.742;2023-07-20T05:49:39;15.70;63.30
36280;DHT22;22317;47.936;12.742;2023-07-20T05:52:05;15.70;63.10
36280;DHT22;22317;47.936;12.742;2023-07-20T05:54:31;15.70;62.90
36280;DHT22;22317;47.936;12.742;2023-07-20T05:56:57;15.60;62.80
36280;DHT22;22317;47.936;12.742;2023-07-20T05:59:24;15.60;62.80
36280;DHT22;22317;47.936;12.742;2023-07-20T06:01:49;15.50;62.80
36280;DHT22;22317;47.936;12.742;2023-07-20T06:04:15;15.50;63.00
36280;DHT22;22317;47.936;12.742;2023-07-20T06:06:41;15.50;63.00
36280;DHT22;22317;47.936;12.742;2023-07-20T06:09:07;15.50;62.90
36280;DHT22;22317;47.936;12.742;2023-07-20T06:11:38;15.50;62.90
36280;DHT22;22317;47.936;12.742;2023-07-20T06:14:04;15.40;63.60
36280;DHT22;22317;47.936;12.742;2023-07-20T06:16:30;15.40;63.00
36280;DHT22;22317;47.936;12.742;2023-07-20T06:18:55;15.40;63.00
36280;DHT22;22317;47.936;12.742;2023-07-20T06:21:22;15.50;63.00
36280;DHT22;22317;47.936;12.742;2023-07-20T06:23:47;15.50;62.70
36280;DHT22;22317;47.936;12.742;2023-07-20T06:26:13;15.40;62.50
36280;DHT22;22317;47.936;12.742;2023-07-20T06:28:39;15.40;62.70
36280;DHT22;22317;47.936;12.742;2023-07-20T06:31:04;15.40;62.70
36280;DHT22;22317;47.936;12.742;2023-07-20T06:33:30;15.40;62.90
36280;DHT22;22317;47.936;12.742;2023-07-20T06:35:57;15.50;63.10
36280;DHT22;22317;47.936;12.742;2023-07-20T06:38:23;15.50;63.20
36280;DHT22;22317;47.936;12.742;2023-07-20T06:40:50;15.50;63.30
36280;DHT22;22317;47.936;12.742;2023-07-20T06:43:16;15.50;63.50
36280;DHT22;22317;47.936;12.742;2023-07-20T06:45:42;15.60;63.40
36280;DHT22;22317;47.936;12.742;2023-07-20T06:48:08;15.60;63.30
36280;DHT22;22317;47.936;12.742;2023-07-20T06:50:34;15.70;63.40
36280;DHT22;22317;47.936;12.742;2023-07-20T06:53:00;15.70;63.40
36280;DHT22;22317;47.936;12.742;2023-07-20T06:55:28;15.80;63.40
36280;DHT22;22317;47.936;12.742;2023-07-20T06:57:54;15.90;63.50
36280;DHT22;22317;47.936;12.742;2023-07-20T07:00:20;16.00;63.30
36280;DHT22;22317;47.936;12.742;2023-07-20T07:02:46;16.00;62.80
36280;DHT22;22317;47.936;12.742;2023-07-20T07:05:11;16.00;62.70
36280;DHT22;22317;47.936;12.742;2023-07-20T07:07:39;16.00;62.90
36280;DHT22;22317;47.936;12.742;2023-07-20T07:10:05;16.50;63.10
36280;DHT22;22317;47.936;12.742;2023-07-20T07:12:31;16.20;63.00
36280;DHT22;22317;47.936;12.742;2023-07-20T07:14:57;16.00;62.80
36280;DHT22;22317;47.936;12.742;2023-07-20T07:17:23;16.00;62.50
36280;DHT22;22317;47.936;12.742;2023-07-20T07:19:49;15.90;62.10
36280;DHT22;22317;47.936;12.742;2023-07-20T07:22:15;16.00;62.30
36280;DHT22;22317;47.936;12.742;2023-07-20T07:24:41;15.90;62.30
36280;DHT22;22317;47.936;12.742;2023-07-20T07:27:08;16.00;62.30
36280;DHT22;22317;47.936;12.742;2023-07-20T07:29:34;16.10;62.00
36280;DHT22;22317;47.936;12.742;2023-07-20T07:32:01;16.10;61.90
36280;DHT22;22317;47.936;12.742;2023-07-20T07:34:27;16.20;61.80
36280;DHT22;22317;47.936;12.742;2023-07-20T07:36:53;16.20;61.40
36280;DHT22;22317;47.936;12.742;2023-07-20T07:39:19;16.30;61.30
36280;DHT22;22317;47.936;12.742;2023-07-20T07:41:45;16.30;61.30
36280;DHT22;22317;47.936;12.742;2023-07-20T07:44:11;16.40;61.30
36280;DHT22;22317;47.936;12.742;2023-07-20T07:46:37;16.50;61.50
36280;DHT22;22317;47.936;12.742;2023-07-20T07:49:02;16.50;61.30
36280;DHT22;22317;47.936;12.742;2023-07-20T07:51:29;16.60;61.10
36280;DHT22;22317;47.936;12.742;2023-07-20T07:53:55;16.70;61.00
36280;DHT22;22317;47.936;12.742;2023-07-20T07:56:21;16.80;60.90
36280;DHT22;22317;47.936;12.742;2023-07-20T07:58:50;16.90;60.80
36280;DHT22;22317;47.936;12.742;2023-07-20T08:01:17;17.00;60.50
36280;DHT22;22317;47.936;12.742;2023-07-20T08:03:45;17.10;60.30
36280;DHT22;22317;47.936;12.742;2023-07-20T08:06:15;17.20;60.20
36280;DHT22;22317;47.936;12.742;2023-07-20T08:08:41;17.30;59.60
36280;DHT22;22317;47.936;12.742;2023-07-20T08:11:08;17.30;59.30
36280;DHT22;22317;47.936;12.742;2023-07-20T08:13:34;17.30;59.00
36280;DHT22;22317;47.936;12.742;2023-07-20T08:16:01;17.40;59.00
36280;DHT22;22317;47.936;12.742;2023-07-20T08:18:30;17.40;58.80
36280;DHT22;22317;47.936;12.742;2023-07-20T08:20:56;17.50;58.30
36280;DHT22;22317;47.936;12.742;2023-07-20T08:23:22;17.40;57.80
36280;DHT22;22317;47.936;12.742;2023-07-20T08:25:48;17.40;57.70
36280;DHT22;22317;47.936;12.742;2023-07-20T08:28:14;17.40;58.00
36280;DHT22;22317;47.936;12.742;2023-07-20T08:30:45;17.50;58.50
36280;DHT22;22317;47.936;12.742;2023-07-20T08:33:13;17.60;58.10
36280;DHT22;22317;47.936;12.742;2023-07-20T08:35:39;17.70;58.00
36280;DHT22;22317;47.936;12.742;2023-07-20T08:38:04;17.90;58.10
36280;DHT22;22317;47.936;12.742;2023-07-20T08:40:32;18.10;57.90
36280;DHT22;22317;47.936;12.742;2023-07-20T08:42:59;18.20;57.20
36280;DHT22;22317;47.936;12.742;2023-07-20T08:45:27;18.30;56.70
36280;DHT22;22317;47.936;12.742;2023-07-20T08:47:56;18.50;56.60
36280;DHT22;22317;47.936;12.742;2023-07-20T08:50:28;18.60;56.10
36280;DHT22;22317;47.936;12.742;2023-07-20T08:52:57;18.80;55.50
36280;DHT22;22317;47.936;12.742;2023-07-20T08:55:23;18.90;55.20
36280;DHT22;22317;47.936;12.742;2023-07-20T08:57:50;19.00;55.00
36280;DHT22;22317;47.936;12.742;2023-07-20T09:00:19;19.20;54.30
36280;DHT22;22317;47.936;12.742;2023-07-20T09:02:47;19.20;53.80
36280;DHT22;22317;47.936;12.742;2023-07-20T09:05:13;19.30;53.70
36280;DHT22;22317;47.936;12.742;2023-07-20T09:07:40;19.30;53.40
36280;DHT22;22317;47.936;12.742;2023-07-20T09:10:07;19.40;53.20
36280;DHT22;22317;47.936;12.742;2023-07-20T09:12:40;19.50;52.90
36280;DHT22;22317;47.936;12.742;2023-07-20T09:15:06;19.60;52.30
36280;DHT22;22317;47.936;12.742;2023-07-20T09:17:33;19.70;51.70
36280;DHT22;22317;47.936;12.742;2023-07-20T09:20:01;19.70;51.30
36280;DHT22;22317;47.936;12.742;2023-07-20T09:22:31;19.80;51.10
36280;DHT22;22317;47.936;12.742;2023-07-20T09:24:58;19.80;50.80
36280;DHT22;22317;47.936;12.742;2023-07-20T09:27:38;19.90;50.60
36280;DHT22;22317;47.936;12.742;2023-07-20T09:30:04;20.00;50.10
36280;DHT22;22317;47.936;12.742;2023-07-20T09:32:41;20.10;50.20
36280;DHT22;22317;47.936;12.742;2023-07-20T09:35:16;20.10;50.30
36280;DHT22;22317;47.936;12.742;2023-07-20T09:37:58;20.10;50.20
36280;DHT22;22317;47.936;12.742;2023-07-20T09:40:25;20.20;49.60
36280;DHT22;22317;47.936;12.742;2023-07-20T09:42:52;20.30;49.70
36280;DHT22;22317;47.936;12.742;2023-07-20T09:45:19;20.40;49.60
36280;DHT22;22317;47.936;12.742;2023-07-20T09:47:45;20.50;50.60
36280;DHT22;22317;47.936;12.742;2023-07-20T09:50:11;20.60;50.30
36280;DHT22;22317;47.936;12.742;2023-07-20T09:52:42;20.80;49.90
36280;DHT22;22317;47.936;12.742;2023-07-20T09:55:13;21.00;48.60
36280;DHT22;22317;47.936;12.742;2023-07-20T09:57:39;21.10;48.40
36280;DHT22;22317;47.936;12.742;2023-07-20T10:00:07;21.20;48.20
36280;DHT22;22317;47.936;12.742;2023-07-20T10:02:45;21.30;47.70
36280;DHT22;22317;47.936;12.742;2023-07-20T10:05:15;21.40;46.50
36280;DHT22;22317;47.936;12.742;2023-07-20T10:07:48;21.40;46.50
36280;DHT22;22317;47.936;12.742;2023-07-20T10:10:15;21.50;46.30
36280;DHT22;22317;47.936;12.742;2023-07-20T10:12:43;21.60;46.10
36280;DHT22;22317;47.936;12.742;2023-07-20T10:15:13;21.70;46.30
36280;DHT22;22317;47.936;12.742;2023-07-20T10:18:06;21.80;45.90
36280;DHT22;22317;47.936;12.742;2023-07-20T10:20:36;21.90;45.30
36280;DHT22;22317;47.936;12.742;2023-07-20T10:23:03;22.10;45.30
36280;DHT22;22317;47.936;12.742;2023-07-20T10:25:30;22.10;45.00
36280;DHT22;22317;47.936;12.742;2023-07-20T10:27:58;22.20;44.90
36280;DHT22;22317;47.936;12.742;2023-07-20T10:30:25;22.30;44.60
36280;DHT22;22317;47.936;12.742;2023-07-20T10:32:52;22.40;44.20
36280;DHT22;22317;47.936;12.742;2023-07-20T10:35:18;22.50;43.90
36280;DHT22;22317;47.936;12.742;2023-07-20T10:37:52;22.50;44.40
36280;DHT22;22317;47.936;12.742;2023-07-20T10:40:34;22.50;43.30
36280;DHT22;22317;47.936;12.742;2023-07-20T10:43:04;22.40;43.40
36280;DHT22;22317;47.936;12.742;2023-07-20T10:45:40;22.50;43.90
36280;DHT22;22317;47.936;12.742;2023-07-20T10:48:22;22.50;43.50
36280;DHT22;22317;47.936;12.742;2023-07-20T10:51:19;22.60;43.00
36280;DHT22;22317;47.936;12.742;2023-07-20T10:53:45;22.70;43.00
36280;DHT22;22317;47.936;12.742;2023-07-20T10:56:15;22.80;43.30
36280;DHT22;22317;47.936;12.742;2023-07-20T10:58:41;22.80;42.60
36280;DHT22;22317;47.936;12.742;2023-07-20T11:01:08;22.80;42.10
36280;DHT22;22317;47.936;12.742;2023-07-20T11:03:36;22.80;41.90
36280;DHT22;22317;47.936;12.742;2023-07-20T11:09:13;23.00;41.00
36280;DHT22;22317;47.936;12.742;2023-07-20T11:11:42;23.00;41.20
36280;DHT22;22317;47.936;12.742;2023-07-20T11:16:46;23.20;40.90
36280;DHT22;22317;47.936;12.742;2023-07-20T11:19:18;23.10;40.60
36280;DHT22;22317;47.936;12.742;2023-07-20T11:21:45;23.20;40.70
36280;DHT22;22317;47.936;12.742;2023-07-20T11:24:12;23.40;41.00
36280;DHT22;22317;47.936;12.742;2023-07-20T11:26:53;23.60;41.00
36280;DHT22;22317;47.936;12.742;2023-07-20T11:29:20;23.80;40.10
36280;DHT22;22317;47.936;12.742;2023-07-20T11:31:47;24.00;40.00
36280;DHT22;22317;47.936;12.742;2023-07-20T11:34:18;24.00;40.40
36280;DHT22;22317;47.936;12.742;2023-07-20T11:36:51;24.10;39.90
36280;DHT22;22317;47.936;12.742;2023-07-20T11:39:19;24.10;39.30
36280;DHT22;22317;47.936;12.742;2023-07-20T11:41:50;24.10;39.10
36280;DHT22;22317;47.936;12.742;2023-07-20T11:44:21;24.10;38.70
36280;DHT22;22317;47.936;12.742;2023-07-20T11:47:09;24.10;38.60
36280;DHT22;22317;47.936;12.742;2023-07-20T11:49:42;24.20;39.00
36280;DHT22;22317;47.936;12.742;2023-07-20T11:52:10;24.40;39.40
36280;DHT22;22317;47.936;12.742;2023-07-20T11:54:38;24.50;39.00
36280;DHT22;22317;47.936;12.742;2023-07-20T11:57:05;24.70;38.50
36280;DHT22;22317;47.936;12.742;2023-07-20T11:59:31;24.70;38.40
36280;DHT22;22317;47.936;12.742;2023-07-20T12:02:00;24.70;38.00
36280;DHT22;22317;47.936;12.742;2023-07-20T12:04:26;24.70;37.50
36280;DHT22;22317;47.936;12.742;2023-07-20T12:06:53;24.80;37.80
36280;DHT22;22317;47.936;12.742;2023-07-20T12:09:21;24.70;37.80
36280;DHT22;22317;47.936;12.742;2023-07-20T12:11:49;24.80;37.90
36280;DHT22;22317;47.936;12.742;2023-07-20T12:14:15;24.80;37.50
36280;DHT22;22317;47.936;12.742;2023-07-20T12:16:41;24.80;37.60
36280;DHT22;22317;47.936;12.742;2023-07-20T12:19:12;24.90;37.50
36280;DHT22;22317;47.936;12.742;2023-07-20T12:21:40;25.00;37.40
36280;DHT22;22317;47.936;12.742;2023-07-20T12:24:08;25.10;37.50
36280;DHT22;22317;47.936;12.742;2023-07-20T12:26:35;25.10;38.10
36280;DHT22;22317;47.936;12.742;2023-07-20T12:29:01;25.30;38.10
36280;DHT22;22317;47.936;12.742;2023-07-20T12:31:29;25.30;37.70
36280;DHT22;22317;47.936;12.742;2023-07-20T12:33:57;25.40;37.60
36280;DHT22;22317;47.936;12.742;2023-07-20T12:36:23;25.40;36.60
36280;DHT22;22317;47.936;12.742;2023-07-20T12:38:50;25.40;36.40
36280;DHT22;22317;47.936;12.742;2023-07-20T12:41:16;25.40;36.30
36280;DHT22;22317;47.936;12.742;2023-07-20T12:43:42;25.40;36.20
36280;DHT22;22317;47.936;12.742;2023-07-20T12:46:09;25.40;36.50
36280;DHT22;22317;47.936;12.742;2023-07-20T12:48:35;25.40;36.40
36280;DHT22;22317;47.936;12.742;2023-07-20T12:51:03;25.40;36.40
36280;DHT22;22317;47.936;12.742;2023-07-20T12:53:30;25.50;36.60
36280;DHT22;22317;47.936;12.742;2023-07-20T12:55:56;25.40;36.40
36280;DHT22;22317;47.936;12.742;2023-07-20T12:58:21;25.50;36.50
36280;DHT22;22317;47.936;12.742;2023-07-20T13:00:47;25.60;36.60
36280;DHT22;22317;47.936;12.742;2023-07-20T13:03:13;25.70;36.80
36280;DHT22;22317;47.936;12.742;2023-07-20T13:05:39;25.80;36.60
36280;DHT22;22317;47.936;12.742;2023-07-20T13:08:04;25.80;36.10
36280;DHT22;22317;47.936;12.742;2023-07-20T13:10:31;25.80;36.10
36280;DHT22;22317;47.936;12.742;2023-07-20T13:12:57;25.70;36.10
36280;DHT22;22317;47.936;12.742;2023-07-20T13:15:29;25.70;36.30
36280;DHT22;22317;47.936;12.742;2023-07-20T13:17:57;25.70;35.80
36280;DHT22;22317;47.936;12.742;2023-07-20T13:20:23;25.70;35.80
36280;DHT22;22317;47.936;12.742;2023-07-20T13:22:49;25.70;35.70
36280;DHT22;22317;47.936;12.742;2023-07-20T13:25:15;25.70;35.60
36280;DHT22;22317;47.936;12.742;2023-07-20T13:27:40;25.80;35.70
36280;DHT22;22317;47.936;12.742;2023-07-20T13:30:06;25.80;36.00
36280;DHT22;22317;47.936;12.742;2023-07-20T13:32:35;26.00;36.00
36280;DHT22;22317;47.936;12.742;2023-07-20T13:35:02;26.00;35.90
36280;DHT22;22317;47.936;12.742;2023-07-20T13:37:28;26.10;36.00
36280;DHT22;22317;47.936;12.742;2023-07-20T13:39:54;26.30;35.50
36280;DHT22;22317;47.936;12.742;2023-07-20T13:42:20;26.30;35.20
36280;DHT22;22317;47.936;12.742;2023-07-20T13:44:48;26.50;35.30
36280;DHT22;22317;47.936;12.742;2023-07-20T13:47:14;26.40;34.90
36280;DHT22;22317;47.936;12.742;2023-07-20T13:49:40;26.50;35.10
36280;DHT22;22317;47.936;12.742;2023-07-20T13:52:06;26.70;35.90
36280;DHT22;22317;47.936;12.742;2023-07-20T13:54:32;27.10;35.60
36280;DHT22;22317;47.936;12.742;2023-07-20T13:56:57;27.30;34.90
36280;DHT22;22317;47.936;12.742;2023-07-20T13:59:23;27.40;34.10
36280;DHT22;22317;47.936;12.742;2023-07-20T14:01:49;27.50;33.60
36280;DHT22;22317;47.936;12.742;2023-07-20T14:04:15;27.50;33.30
36280;DHT22;22317;47.936;12.742;2023-07-20T14:06:41;27.50;33.00
36280;DHT22;22317;47.936;12.742;2023-07-20T14:09:06;27.40;32.60
36280;DHT22;22317;47.936;12.742;2023-07-20T14:11:32;27.30;32.60
36280;DHT22;22317;47.936;12.742;2023-07-20T14:13:58;27.30;32.60
36280;DHT22;22317;47.936;12.742;2023-07-20T14:16:25;27.20;32.40
36280;DHT22;22317;47.936;12.742;2023-07-20T14:18:51;27.10;32.20
36280;DHT22;22317;47.936;12.742;2023-07-20T14:21:19;27.00;32.10
36280;DHT22;22317;47.936;12.742;2023-07-20T14:23:46;26.90;32.40
36280;DHT22;22317;47.936;12.742;2023-07-20T14:26:12;26.80;32.50
36280;DHT22;22317;47.936;12.742;2023-07-20T14:28:38;26.80;32.50
36280;DHT22;22317;47.936;12.742;2023-07-20T14:31:04;26.80;32.80
36280;DHT22;22317;47.936;12.742;2023-07-20T14:33:31;26.80;33.10
36280;DHT22;22317;47.936;12.742;2023-07-20T14:35:56;26.90;33.60
36280;DHT22;22317;47.936;12.742;2023-07-20T14:38:22;27.10;34.10
36280;DHT22;22317;47.936;12.742;2023-07-20T14:40:48;27.20;33.60
36280;DHT22;22317;47.936;12.742;2023-07-20T14:43:14;27.40;33.20
36280;DHT22;22317;47.936;12.742;2023-07-20T14:45:41;27.50;32.90
36280;DHT22;22317;47.936;12.742;2023-07-20T14:48:07;27.60;32.90
36280;DHT22;22317;47.936;12.742;2023-07-20T14:50:33;27.80;32.90
36280;DHT22;22317;47.936;12.742;2023-07-20T14:52:59;27.90;33.00
36280;DHT22;22317;47.936;12.742;2023-07-20T14:55:25;28.10;33.10
36280;DHT22;22317;47.936;12.742;2023-07-20T14:57:51;28.10;33.30
36280;DHT22;22317;47.936;12.742;2023-07-20T15:00:17;28.30;32.80
36280;DHT22;22317;47.936;12.742;2023-07-20T15:02:43;28.40;32.70
36280;DHT22;22317;47.936;12.742;2023-07-20T15:05:10;28.40;32.40
36280;DHT22;22317;47.936;12.742;2023-07-20T15:07:36;28.50;32.00
36280;DHT22;22317;47.936;12.742;2023-07-20T15:10:04;28.60;32.00
36280;DHT22;22317;47.936;12.742;2023-07-20T15:12:30;28.70;31.80
36280;DHT22;22317;47.936;12.742;2023-07-20T15:15:12;28.70;31.40
36280;DHT22;22317;47.936;12.742;2023-07-20T15:17:39;28.70;30.50
36280;DHT22;22317;47.936;12.742;2023-07-20T15:20:06;28.70;30.80
36280;DHT22;22317;47.936;12.742;2023-07-20T15:22:35;28.70;31.10
36280;DHT22;22317;47.936;12.742;2023-07-20T15:25:02;28.80;31.20
36280;DHT22;22317;47.936;12.742;2023-07-20T15:27:28;28.90;31.50
36280;DHT22;22317;47.936;12.742;2023-07-20T15:29:54;29.10;31.60